sensor_id;sensor_type;location;lat;lon;timestamp;pressure;altitude;pressure_sealevel;temperature;humidity
32131;BME280;18639;50.716;7.086;2022-10-20T00:00:36;100631.81;;;12.95;100.00
32131;BME280;18639;50.716;7.086;2022-10-20T00:03:01;100622.03;;;12.98;100.00
32131;BME280;18639;50.716;7.086;2022-10-20T00:05:27;100609.78;;;13.00;100.00
32131;BME280;18639;50.716;7.086;2022-10-20T00:07:52;100594.66;;;12.94;100.00
32131;BME280;18639;50.716;7.086;2022-10-20T00:10:17;100609.97;;;13.10;100.00
32131;BME280;18639;50.716;7.086;2022-10-20T00:12:42;100576.94;;;12.88;100.00
32131;BME280;18639;50.716;7.086;2022-10-20T00:15:08;100592.69;;;12.98;100.00
32131;BME280;18639;50.716;7.086;2022-10-20T00:17:35;100600.03;;;13.04;100.00
32131;BME280;18639;50.716;7.086;2022-10-20T00:20:00;100604.19;;;13.06;100.00
32131;BME280;18639;50.716;7.086;2022-10-20T00:22:25;100603.69;;;13.01;100.00
32131;BME280;18639;50.716;7.086;2022-10-20T00:24:51;100591.13;;;12.95;100.00
32131;BME280;18639;50.716;7.086;2022-10-20T00:27:16;100576.50;;;12.94;100.00
32131;BME280;18639;50.716;7.086;2022-10-20T00:29:41;100525.88;;;12.65;100.00
32131;BME280;18639;50.716;7.086;2022-10-20T00:32:06;100587.19;;;13.02;100.00
32131;BME280;18639;50.716;7.086;2022-10-20T00:34:32;100601.75;;;12.92;100.00
32131;BME280;18639;50.716;7.086;2022-10-20T00:36:57;100594.22;;;13.00;100.00
32131;BME280;18639;50.716;7.086;2022-10-20T00:39:22;100590.47;;;13.04;100.00
32131;BME280;18639;50.716;7.086;2022-10-20T00:41:48;100587.09;;;12.91;100.00
32131;BME280;18639;50.716;7.086;2022-10-20T00:44:49;100584.19;;;12.96;100.00
32131;BME280;18639;50.716;7.086;2022-10-20T00:47:18;100546.88;;;12.73;100.00
32131;BME280;18639;50.716;7.086;2022-10-20T00:49:45;100583.88;;;12.88;100.00
32131;BME280;18639;50.716;7.086;2022-10-20T00:52:11;100557.75;;;12.78;100.00
32131;BME280;18639;50.716;7.086;2022-10-20T00:54:37;100563.59;;;12.82;100.00
32131;BME280;18639;50.716;7.086;2022-10-20T00:57:02;100571.75;;;12.88;100.00
32131;BME280;18639;50.716;7.086;2022-10-20T00:59:31;100560.03;;;12.83;100.00
32131;BME280;18639;50.716;7.086;2022-10-20T01:01:58;100562.84;;;12.92;100.00
32131;BME280;18639;50.716;7.086;2022-10-20T01:04:26;100561.50;;;12.87;100.00
32131;BME280;18639;50.716;7.086;2022-10-20T01:06:52;100545.72;;;12.90;100.00
32131;BME280;18639;50.716;7.086;2022-10-20T01:09:17;100562.09;;;12.90;100.00
32131;BME280;18639;50.716;7.086;2022-10-20T01:14:59;100541.19;;;12.81;100.00
32131;BME280;18639;50.716;7.086;2022-10-20T01:17:51;100542.72;;;12.83;100.00
32131;BME280;18639;50.716;7.086;2022-10-20T01:20:49;100540.34;;;12.80;100.00
32131;BME280;18639;50.716;7.086;2022-10-20T01:28:56;100537.88;;;12.66;100.00
32131;BME280;18639;50.716;7.086;2022-10-20T01:31:51;100516.88;;;12.45;100.00
32131;BME280;18639;50.716;7.086;2022-10-20T01:39:51;100467.28;;;12.13;100.00
32131;BME280;18639;50.716;7.086;2022-10-20T01:42:21;100511.59;;;12.47;100.00
32131;BME280;18639;50.716;7.086;2022-10-20T01:44:53;100511.31;;;12.39;100.00
32131;BME280;18639;50.716;7.086;2022-10-20T01:47:24;100453.13;;;12.06;100.00
32131;BME280;18639;50.716;7.086;2022-10-20T01:50:04;100505.50;;;12.35;100.00
32131;BME280;18639;50.716;7.086;2022-10-20T01:53:01;100503.63;;;12.24;100.00
32131;BME280;18639;50.716;7.086;2022-10-20T01:55:57;100420.47;;;11.66;100.00
32131;BME280;18639;50.716;7.086;2022-10-20T02:04:04;100448.66;;;11.83;100.00
32131;BME280;18639;50.716;7.086;2022-10-20T02:14:02;100366.03;;;11.29;100.00
32131;BME280;18639;50.716;7.086;2022-10-20T02:17:01;100339.31;;;11.29;100.00
32131;BME280;18639;50.716;7.086;2022-10-20T02:19:32;100463.66;;;12.03;100.00
32131;BME280;18639;50.716;7.086;2022-10-20T02:22:03;100356.91;;;11.24;100.00
32131;BME280;18639;50.716;7.086;2022-10-20T02:24:33;100412.69;;;11.66;100.00
32131;BME280;18639;50.716;7.086;2022-10-20T02:27:09;100425.31;;;11.70;100.00
32131;BME280;18639;50.716;7.086;2022-10-20T02:29:43;100330.09;;;11.12;100.00
32131;BME280;18639;50.716;7.086;2022-10-20T02:32:28;100401.22;;;11.45;100.00
32131;BME280;18639;50.716;7.086;2022-10-20T02:35:08;100412.59;;;11.55;100.00
32131;BME280;18639;50.716;7.086;2022-10-20T02:37:40;100416.00;;;11.55;100.00
32131;BME280;18639;50.716;7.086;2022-10-20T02:40:06;100409.31;;;11.53;100.00
32131;BME280;18639;50.716;7.086;2022-10-20T02:48:54;100370.38;;;11.29;100.00
32131;BME280;18639;50.716;7.086;2022-10-20T02:51:25;100429.19;;;11.52;100.00
32131;BME280;18639;50.716;7.086;2022-10-20T02:53:59;100325.97;;;10.97;100.00
32131;BME280;18639;50.716;7.086;2022-10-20T02:56:25;100464.84;;;11.74;100.00
32131;BME280;18639;50.716;7.086;2022-10-20T02:58:50;100453.81;;;11.70;100.00
32131;BME280;18639;50.716;7.086;2022-10-20T03:01:18;100348.03;;;11.15;100.00
32131;BME280;18639;50.716;7.086;2022-10-20T03:03:43;100438.41;;;11.69;100.00
32131;BME280;18639;50.716;7.086;2022-10-20T03:06:14;100424.44;;;11.59;100.00
32131;BME280;18639;50.716;7.086;2022-10-20T03:08:40;100337.47;;;11.18;100.00
32131;BME280;18639;50.716;7.086;2022-10-20T03:11:06;100341.94;;;11.16;100.00
32131;BME280;18639;50.716;7.086;2022-10-20T03:13:32;100274.16;;;10.73;100.00
32131;BME280;18639;50.716;7.086;2022-10-20T03:15:58;100309.41;;;10.87;100.00
32131;BME280;18639;50.716;7.086;2022-10-20T03:18:26;100417.59;;;11.58;100.00
32131;BME280;18639;50.716;7.086;2022-10-20T03:24:07;100355.38;;;11.21;100.00
32131;BME280;18639;50.716;7.086;2022-10-20T03:26:52;100349.13;;;11.11;100.00
32131;BME280;18639;50.716;7.086;2022-10-20T03:29:35;100341.09;;;11.16;100.00
32131;BME280;18639;50.716;7.086;2022-10-20T03:32:05;100334.75;;;11.07;100.00
32131;BME280;18639;50.716;7.086;2022-10-20T03:34:31;100328.16;;;11.16;100.00
32131;BME280;18639;50.716;7.086;2022-10-20T03:36:56;100339.72;;;11.23;100.00
32131;BME280;18639;50.716;7.086;2022-10-20T03:39:22;100363.84;;;11.23;100.00
32131;BME280;18639;50.716;7.086;2022-10-20T03:41:47;100313.56;;;11.02;100.00
32131;BME280;18639;50.716;7.086;2022-10-20T03:44:12;100379.69;;;11.44;100.00
32131;BME280;18639;50.716;7.086;2022-10-20T03:46:38;100344.06;;;11.22;100.00
32131;BME280;18639;50.716;7.086;2022-10-20T03:49:03;100326.50;;;11.15;100.00
32131;BME280;18639;50.716;7.086;2022-10-20T03:51:28;100314.47;;;11.01;100.00
32131;BME280;18639;50.716;7.086;2022-10-20T03:53:54;100325.06;;;11.11;100.00
32131;BME280;18639;50.716;7.086;2022-10-20T03:56:20;100353.81;;;11.31;100.00
32131;BME280;18639;50.716;7.086;2022-10-20T03:58:46;100360.34;;;11.24;100.00
32131;BME280;18639;50.716;7.086;2022-10-20T04:01:14;100318.22;;;11.10;100.00
32131;BME280;18639;50.716;7.086;2022-10-20T04:03:40;100330.22;;;11.11;100.00
32131;BME280;18639;50.716;7.086;2022-10-20T04:06:05;100358.25;;;11.29;100.00
32131;BME280;18639;50.716;7.086;2022-10-20T04:08:30;100400.63;;;11.54;100.00
32131;BME280;18639;50.716;7.086;2022-10-20T04:10:56;100358.59;;;11.37;100.00
32131;BME280;18639;50.716;7.086;2022-10-20T04:13:22;100360.34;;;11.37;100.00
32131;BME280;18639;50.716;7.086;2022-10-20T04:15:47;100367.88;;;11.40;100.00
32131;BME280;18639;50.716;7.086;2022-10-20T04:18:13;100333.13;;;11.31;100.00
32131;BME280;18639;50.716;7.086;2022-10-20T04:20:38;100314.19;;;11.18;100.00
32131;BME280;18639;50.716;7.086;2022-10-20T04:23:03;100324.22;;;11.23;100.00
32131;BME280;18639;50.716;7.086;2022-10-20T04:25:53;100240.44;;;10.75;100.00
32131;BME280;18639;50.716;7.086;2022-10-20T04:28:30;100309.94;;;11.30;100.00
32131;BME280;18639;50.716;7.086;2022-10-20T04:30:58;100291.63;;;11.20;100.00
32131;BME280;18639;50.716;7.086;2022-10-20T04:33:24;100246.63;;;10.85;100.00
32131;BME280;18639;50.716;7.086;2022-10-20T04:35:56;100317.09;;;11.26;100.00
32131;BME280;18639;50.716;7.086;2022-10-20T04:38:24;100307.78;;;11.24;100.00
32131;BME280;18639;50.716;7.086;2022-10-20T04:40:56;100302.00;;;11.20;100.00
32131;BME280;18639;50.716;7.086;2022-10-20T04:43:25;100299.00;;;11.26;100.00
32131;BME280;18639;50.716;7.086;2022-10-20T04:45:51;100297.94;;;11.29;100.00
32131;BME280;18639;50.716;7.086;2022-10-20T04:48:18;100228.53;;;10.85;100.00
32131;BME280;18639;50.716;7.086;2022-10-20T04:50:44;100276.91;;;11.33;100.00
32131;BME280;18639;50.716;7.086;2022-10-20T04:53:12;100344.19;;;11.59;100.00
32131;BME280;18639;50.716;7.086;2022-10-20T04:55:40;100249.22;;;11.10;100.00
32131;BME280;18639;50.716;7.086;2022-10-20T04:58:06;100237.22;;;11.09;100.00
32131;BME280;18639;50.716;7.086;2022-10-20T05:00:31;100275.59;;;11.15;100.00
32131;BME280;18639;50.716;7.086;2022-10-20T05:02:56;100223.47;;;10.96;100.00
32131;BME280;18639;50.716;7.086;2022-10-20T05:05:22;100307.44;;;11.54;100.00
32131;BME280;18639;50.716;7.086;2022-10-20T05:07:47;100258.63;;;11.24;100.00
32131;BME280;18639;50.716;7.086;2022-10-20T05:10:13;100227.53;;;11.00;100.00
32131;BME280;18639;50.716;7.086;2022-10-20T05:12:38;100298.03;;;11.40;100.00
32131;BME280;18639;50.716;7.086;2022-10-20T05:15:04;100213.13;;;10.96;100.00
32131;BME280;18639;50.716;7.086;2022-10-20T05:17:29;100197.84;;;10.93;100.00
32131;BME280;18639;50.716;7.086;2022-10-20T05:19:55;100228.03;;;11.05;100.00
32131;BME280;18639;50.716;7.086;2022-10-20T05:22:23;100232.16;;;11.20;100.00
32131;BME280;18639;50.716;7.086;2022-10-20T05:24:49;100199.69;;;10.91;100.00
32131;BME280;18639;50.716;7.086;2022-10-20T05:27:15;100214.38;;;11.03;100.00
32131;BME280;18639;50.716;7.086;2022-10-20T05:29:40;100259.81;;;11.44;100.00
32131;BME280;18639;50.716;7.086;2022-10-20T05:32:05;100220.06;;;11.21;100.00
32131;BME280;18639;50.716;7.086;2022-10-20T05:34:30;100252.00;;;11.32;100.00
32131;BME280;18639;50.716;7.086;2022-10-20T05:36:56;100244.75;;;11.37;100.00
32131;BME280;18639;50.716;7.086;2022-10-20T05:39:21;100223.47;;;11.21;100.00
32131;BME280;18639;50.716;7.086;2022-10-20T05:41:47;100164.03;;;10.83;100.00
32131;BME280;18639;50.716;7.086;2022-10-20T05:44:12;100237.28;;;11.33;100.00
32131;BME280;18639;50.716;7.086;2022-10-20T05:46:37;100226.75;;;11.36;100.00
32131;BME280;18639;50.716;7.086;2022-10-20T05:49:05;100200.72;;;11.14;100.00
32131;BME280;18639;50.716;7.086;2022-10-20T05:51:34;100231.91;;;11.36;100.00
32131;BME280;18639;50.716;7.086;2022-10-20T05:54:00;100253.19;;;11.52;100.00
32131;BME280;18639;50.716;7.086;2022-10-20T05:56:26;100247.19;;;11.52;100.00
32131;BME280;18639;50.716;7.086;2022-10-20T05:58:52;100233.56;;;11.37;100.00
32131;BME280;18639;50.716;7.086;2022-10-20T06:01:26;100242.16;;;11.37;100.00
32131;BME280;18639;50.716;7.086;2022-10-20T06:04:01;100159.78;;;10.95;100.00
32131;BME280;18639;50.716;7.086;2022-10-20T06:06:28;100260.03;;;11.53;100.00
32131;BME280;18639;50.716;7.086;2022-10-20T06:08:58;100233.34;;;11.40;100.00
32131;BME280;18639;50.716;7.086;2022-10-20T06:11:24;100248.78;;;11.42;100.00
32131;BME280;18639;50.716;7.086;2022-10-20T06:13:49;100269.63;;;11.64;100.00
32131;BME280;18639;50.716;7.086;2022-10-20T06:16:18;100238.84;;;11.35;100.00
32131;BME280;18639;50.716;7.086;2022-10-20T06:18:43;100257.38;;;11.42;100.00
32131;BME280;18639;50.716;7.086;2022-10-20T06:21:14;100138.94;;;10.73;100.00
32131;BME280;18639;50.716;7.086;2022-10-20T06:23:43;100240.59;;;11.48;100.00
32131;BME280;18639;50.716;7.086;2022-10-20T06:26:11;100225.50;;;11.42;100.00
32131;BME280;18639;50.716;7.086;2022-10-20T06:28:38;100224.25;;;11.34;100.00
32131;BME280;18639;50.716;7.086;2022-10-20T06:31:13;100235.09;;;11.39;100.00
32131;BME280;18639;50.716;7.086;2022-10-20T06:33:43;100260.91;;;11.65;100.00
32131;BME280;18639;50.716;7.086;2022-10-20T06:36:09;100244.88;;;11.60;100.00
32131;BME280;18639;50.716;7.086;2022-10-20T06:38:35;100253.88;;;11.67;100.00
32131;BME280;18639;50.716;7.086;2022-10-20T06:41:07;100244.88;;;11.60;100.00
32131;BME280;18639;50.716;7.086;2022-10-20T06:43:34;100211.72;;;11.41;100.00
32131;BME280;18639;50.716;7.086;2022-10-20T06:46:02;100255.84;;;11.76;100.00
32131;BME280;18639;50.716;7.086;2022-10-20T06:48:28;100208.81;;;11.46;100.00
32131;BME280;18639;50.716;7.086;2022-10-20T06:51:04;100269.75;;;11.75;100.00
32131;BME280;18639;50.716;7.086;2022-10-20T06:53:33;100168.66;;;11.04;100.00
32131;BME280;18639;50.716;7.086;2022-10-20T06:56:04;100275.53;;;11.78;100.00
32131;BME280;18639;50.716;7.086;2022-10-20T06:58:34;100223.84;;;11.40;100.00
32131;BME280;18639;50.716;7.086;2022-10-20T07:01:01;100222.66;;;11.57;100.00
32131;BME280;18639;50.716;7.086;2022-10-20T07:03:31;100279.63;;;11.81;100.00
32131;BME280;18639;50.716;7.086;2022-10-20T07:05:57;100278.00;;;11.80;100.00
32131;BME280;18639;50.716;7.086;2022-10-20T07:08:23;100287.47;;;11.92;100.00
32131;BME280;18639;50.716;7.086;2022-10-20T07:11:03;100283.56;;;11.87;100.00
32131;BME280;18639;50.716;7.086;2022-10-20T07:13:29;100289.13;;;11.93;100.00
32131;BME280;18639;50.716;7.086;2022-10-20T07:15:56;100281.88;;;11.98;100.00
32131;BME280;18639;50.716;7.086;2022-10-20T07:18:22;100273.16;;;11.99;100.00
32131;BME280;18639;50.716;7.086;2022-10-20T07:20:48;100257.88;;;11.96;100.00
32131;BME280;18639;50.716;7.086;2022-10-20T07:23:13;100262.56;;;12.02;100.00
32131;BME280;18639;50.716;7.086;2022-10-20T07:25:39;100220.38;;;11.89;100.00
32131;BME280;18639;50.716;7.086;2022-10-20T07:28:04;100231.28;;;12.05;100.00
32131;BME280;18639;50.716;7.086;2022-10-20T07:30:29;100218.69;;;12.01;100.00
32131;BME280;18639;50.716;7.086;2022-10-20T07:32:58;100190.44;;;11.74;100.00
32131;BME280;18639;50.716;7.086;2022-10-20T07:35:23;100247.53;;;12.07;100.00
32131;BME280;18639;50.716;7.086;2022-10-20T07:37:49;100256.06;;;12.20;100.00
32131;BME280;18639;50.716;7.086;2022-10-20T07:40:14;100240.78;;;12.17;100.00
32131;BME280;18639;50.716;7.086;2022-10-20T07:42:40;100219.03;;;11.96;100.00
32131;BME280;18639;50.716;7.086;2022-10-20T07:45:05;100241.22;;;12.11;100.00
32131;BME280;18639;50.716;7.086;2022-10-20T07:47:31;100247.28;;;12.23;100.00
32131;BME280;18639;50.716;7.086;2022-10-20T07:49:56;100242.19;;;12.21;100.00
32131;BME280;18639;50.716;7.086;2022-10-20T07:52:21;100249.78;;;12.36;100.00
32131;BME280;18639;50.716;7.086;2022-10-20T07:54:47;100240.34;;;12.35;100.00
32131;BME280;18639;50.716;7.086;2022-10-20T07:57:12;100230.31;;;12.30;100.00
32131;BME280;18639;50.716;7.086;2022-10-20T07:59:47;100159.06;;;11.90;100.00
32131;BME280;18639;50.716;7.086;2022-10-20T08:02:14;100252.88;;;12.52;100.00
32131;BME280;18639;50.716;7.086;2022-10-20T08:04:40;100222.97;;;12.48;100.00
32131;BME280;18639;50.716;7.086;2022-10-20T08:07:09;100228.38;;;12.56;100.00
32131;BME280;18639;50.716;7.086;2022-10-20T08:09:34;100226.03;;;12.53;100.00
32131;BME280;18639;50.716;7.086;2022-10-20T08:12:00;100236.31;;;12.65;100.00
32131;BME280;18639;50.716;7.086;2022-10-20T08:14:25;100236.44;;;12.64;100.00
32131;BME280;18639;50.716;7.086;2022-10-20T08:16:51;100238.59;;;12.81;100.00
32131;BME280;18639;50.716;7.086;2022-10-20T08:19:16;100222.28;;;12.68;100.00
32131;BME280;18639;50.716;7.086;2022-10-20T08:21:41;100239.50;;;12.69;100.00
32131;BME280;18639;50.716;7.086;2022-10-20T08:24:07;100235.84;;;12.72;100.00
32131;BME280;18639;50.716;7.086;2022-10-20T08:26:33;100233.13;;;12.62;100.00
32131;BME280;18639;50.716;7.086;2022-10-20T08:28:58;100249.41;;;12.75;100.00
32131;BME280;18639;50.716;7.086;2022-10-20T08:31:23;100238.31;;;12.62;100.00
32131;BME280;18639;50.716;7.086;2022-10-20T08:33:49;100242.56;;;12.63;100.00
32131;BME280;18639;50.716;7.086;2022-10-20T08:36:14;100225.59;;;12.59;100.00
32131;BME280;18639;50.716;7.086;2022-10-20T08:38:42;100251.19;;;12.75;100.00
32131;BME280;18639;50.716;7.086;2022-10-20T08:41:22;100243.50;;;12.73;100.00
32131;BME280;18639;50.716;7.086;2022-10-20T08:43:51;100246.47;;;12.69;100.00
32131;BME280;18639;50.716;7.086;2022-10-20T08:46:20;100241.16;;;12.70;100.00
32131;BME280;18639;50.716;7.086;2022-10-20T08:48:50;100243.09;;;12.55;100.00
32131;BME280;18639;50.716;7.086;2022-10-20T08:51:20;100239.22;;;12.61;100.00
32131;BME280;18639;50.716;7.086;2022-10-20T08:53:47;100222.81;;;12.38;100.00
32131;BME280;18639;50.716;7.086;2022-10-20T08:56:19;100235.72;;;12.62;100.00
32131;BME280;18639;50.716;7.086;2022-10-20T08:58:46;100230.97;;;12.56;100.00
32131;BME280;18639;50.716;7.086;2022-10-20T09:01:20;100229.59;;;12.63;100.00
32131;BME280;18639;50.716;7.086;2022-10-20T09:03:52;100226.75;;;12.55;100.00
32131;BME280;18639;50.716;7.086;2022-10-20T09:06:18;100187.38;;;12.39;100.00
32131;BME280;18639;50.716;7.086;2022-10-20T09:08:44;100184.44;;;12.43;100.00
32131;BME280;18639;50.716;7.086;2022-10-20T09:11:15;100210.25;;;12.56;100.00
32131;BME280;18639;50.716;7.086;2022-10-20T09:13:44;100230.91;;;12.69;100.00
32131;BME280;18639;50.716;7.086;2022-10-20T09:16:27;100239.03;;;12.64;100.00
32131;BME280;18639;50.716;7.086;2022-10-20T09:18:58;100219.91;;;12.54;100.00
32131;BME280;18639;50.716;7.086;2022-10-20T09:21:25;100215.22;;;12.59;100.00
32131;BME280;18639;50.716;7.086;2022-10-20T09:23:53;100166.13;;;12.22;100.00
32131;BME280;18639;50.716;7.086;2022-10-20T09:31:39;100212.13;;;12.54;100.00
32131;BME280;18639;50.716;7.086;2022-10-20T09:34:19;100228.88;;;12.61;100.00
32131;BME280;18639;50.716;7.086;2022-10-20T09:36:45;100240.06;;;12.61;100.00
32131;BME280;18639;50.716;7.086;2022-10-20T09:39:24;100216.97;;;12.58;100.00
32131;BME280;18639;50.716;7.086;2022-10-20T09:41:59;100228.44;;;12.78;100.00
32131;BME280;18639;50.716;7.086;2022-10-20T09:44:26;100221.59;;;12.77;100.00
32131;BME280;18639;50.716;7.086;2022-10-20T09:46:53;100203.31;;;12.68;100.00
32131;BME280;18639;50.716;7.086;2022-10-20T09:49:34;100242.50;;;12.87;100.00
32131;BME280;18639;50.716;7.086;2022-10-20T09:52:03;100250.28;;;12.87;100.00
32131;BME280;18639;50.716;7.086;2022-10-20T09:54:39;100241.78;;;12.85;100.00
32131;BME280;18639;50.716;7.086;2022-10-20T09:57:07;100248.63;;;12.86;100.00
32131;BME280;18639;50.716;7.086;2022-10-20T09:59:43;100238.81;;;12.89;100.00
32131;BME280;18639;50.716;7.086;2022-10-20T10:04:40;100249.44;;;12.86;100.00
32131;BME280;18639;50.716;7.086;2022-10-20T10:12:50;100240.47;;;12.90;100.00
32131;BME280;18639;50.716;7.086;2022-10-20T10:17:49;100209.47;;;12.89;100.00
32131;BME280;18639;50.716;7.086;2022-10-20T10:22:43;100214.91;;;12.97;100.00
32131;BME280;18639;50.716;7.086;2022-10-20T10:25:17;100218.34;;;12.97;100.00
32131;BME280;18639;50.716;7.086;2022-10-20T10:27:58;100190.47;;;12.77;100.00
32131;BME280;18639;50.716;7.086;2022-10-20T10:30:28;100200.28;;;12.85;100.00
32131;BME280;18639;50.716;7.086;2022-10-20T10:32:55;100193.31;;;12.85;100.00
32131;BME280;18639;50.716;7.086;2022-10-20T10:35:38;100218.94;;;13.12;100.00
32131;BME280;18639;50.716;7.086;2022-10-20T10:38:08;100177.28;;;12.80;100.00
32131;BME280;18639;50.716;7.086;2022-10-20T10:43:24;100195.19;;;12.94;100.00
32131;BME280;18639;50.716;7.086;2022-10-20T10:45:56;100214.59;;;13.13;100.00
32131;BME280;18639;50.716;7.086;2022-10-20T10:59:10;100227.66;;;13.22;100.00
32131;BME280;18639;50.716;7.086;2022-10-20T11:07:58;100268.94;;;13.25;100.00
32131;BME280;18639;50.716;7.086;2022-10-20T11:16:13;100266.81;;;13.30;100.00
32131;BME280;18639;50.716;7.086;2022-10-20T11:24:09;100267.06;;;13.38;100.00
32131;BME280;18639;50.716;7.086;2022-10-20T11:26:44;100270.13;;;13.43;100.00
32131;BME280;18639;50.716;7.086;2022-10-20T11:29:16;100209.59;;;13.09;100.00
32131;BME280;18639;50.716;7.086;2022-10-20T11:31:49;100200.41;;;13.05;100.00
32131;BME280;18639;50.716;7.086;2022-10-20T11:37:05;100246.41;;;13.48;100.00
32131;BME280;18639;50.716;7.086;2022-10-20T11:40:12;100230.38;;;13.43;100.00
32131;BME280;18639;50.716;7.086;2022-10-20T11:47:50;100229.41;;;13.44;100.00
32131;BME280;18639;50.716;7.086;2022-10-20T11:50:19;100224.47;;;13.41;100.00
32131;BME280;18639;50.716;7.086;2022-10-20T12:01:55;100194.31;;;13.18;100.00
32131;BME280;18639;50.716;7.086;2022-10-20T12:04:38;100194.66;;;13.24;100.00
32131;BME280;18639;50.716;7.086;2022-10-20T12:07:24;100210.81;;;13.17;100.00
32131;BME280;18639;50.716;7.086;2022-10-20T12:10:08;100214.13;;;13.19;100.00
32131;BME280;18639;50.716;7.086;2022-10-20T12:12:51;100196.44;;;13.13;100.00
32131;BME280;18639;50.716;7.086;2022-10-20T12:15:26;100184.03;;;13.16;100.00
32131;BME280;18639;50.716;7.086;2022-10-20T12:18:04;100179.41;;;13.20;100.00
32131;BME280;18639;50.716;7.086;2022-10-20T12:23:02;100172.00;;;13.15;100.00
32131;BME280;18639;50.716;7.086;2022-10-20T12:25:37;100157.16;;;13.17;100.00
32131;BME280;18639;50.716;7.086;2022-10-20T12:31:19;100111.16;;;12.86;100.00
32131;BME280;18639;50.716;7.086;2022-10-20T12:41:53;100113.75;;;13.08;100.00
32131;BME280;18639;50.716;7.086;2022-10-20T12:44:21;100130.84;;;13.22;100.00
32131;BME280;18639;50.716;7.086;2022-10-20T12:46:56;100155.34;;;13.40;100.00
32131;BME280;18639;50.716;7.086;2022-10-20T12:49:26;100156.97;;;13.41;100.00
32131;BME280;18639;50.716;7.086;2022-10-20T12:51:55;100135.97;;;13.44;100.00
32131;BME280;18639;50.716;7.086;2022-10-20T12:54:37;100143.72;;;13.55;100.00
32131;BME280;18639;50.716;7.086;2022-10-20T12:57:23;100150.31;;;13.59;100.00
32131;BME280;18639;50.716;7.086;2022-10-20T12:59:50;100132.06;;;13.49;100.00
32131;BME280;18639;50.716;7.086;2022-10-20T13:10:36;100119.50;;;13.66;100.00
32131;BME280;18639;50.716;7.086;2022-10-20T13:23:15;100129.88;;;13.66;100.00
32131;BME280;18639;50.716;7.086;2022-10-20T13:25:47;100122.66;;;13.69;100.00
32131;BME280;18639;50.716;7.086;2022-10-20T13:30:59;100106.41;;;13.67;100.00
32131;BME280;18639;50.716;7.086;2022-10-20T13:36:26;100101.47;;;13.53;100.00
32131;BME280;18639;50.716;7.086;2022-10-20T13:39:01;100109.97;;;13.55;100.00
32131;BME280;18639;50.716;7.086;2022-10-20T13:44:40;100120.38;;;13.55;100.00
32131;BME280;18639;50.716;7.086;2022-10-20T13:50:00;100110.16;;;13.63;100.00
32131;BME280;18639;50.716;7.086;2022-10-20T13:52:31;100114.03;;;13.69;100.00
32131;BME280;18639;50.716;7.086;2022-10-20T13:54:58;100106.13;;;13.70;100.00
32131;BME280;18639;50.716;7.086;2022-10-20T13:57:29;100106.41;;;13.67;100.00
32131;BME280;18639;50.716;7.086;2022-10-20T13:59:58;100108.34;;;13.75;100.00
32131;BME280;18639;50.716;7.086;2022-10-20T14:02:28;100104.00;;;13.75;100.00
32131;BME280;18639;50.716;7.086;2022-10-20T14:05:14;100086.75;;;13.74;100.00
32131;BME280;18639;50.716;7.086;2022-10-20T14:07:41;100084.22;;;13.63;100.00
32131;BME280;18639;50.716;7.086;2022-10-20T14:12:45;100097.22;;;13.84;100.00
32131;BME280;18639;50.716;7.086;2022-10-20T14:15:13;100084.81;;;13.87;100.00
32131;BME280;18639;50.716;7.086;2022-10-20T14:17:40;100066.88;;;13.84;100.00
32131;BME280;18639;50.716;7.086;2022-10-20T14:20:20;100073.22;;;13.91;100.00
32131;BME280;18639;50.716;7.086;2022-10-20T14:22:46;100070.28;;;13.85;100.00
32131;BME280;18639;50.716;7.086;2022-10-20T14:25:12;100058.41;;;13.82;100.00
32131;BME280;18639;50.716;7.086;2022-10-20T14:27:38;100064.72;;;13.89;100.00
32131;BME280;18639;50.716;7.086;2022-10-20T14:30:05;100059.06;;;13.84;100.00
32131;BME280;18639;50.716;7.086;2022-10-20T14:32:33;100056.25;;;13.87;100.00
32131;BME280;18639;50.716;7.086;2022-10-20T14:37:44;100054.09;;;13.93;100.00
32131;BME280;18639;50.716;7.086;2022-10-20T14:40:19;100047.88;;;14.05;100.00
32131;BME280;18639;50.716;7.086;2022-10-20T14:42:45;100035.91;;;13.93;100.00
32131;BME280;18639;50.716;7.086;2022-10-20T14:45:23;100039.09;;;14.06;100.00
32131;BME280;18639;50.716;7.086;2022-10-20T14:47:49;100043.19;;;13.99;100.00
32131;BME280;18639;50.716;7.086;2022-10-20T14:50:21;100041.03;;;14.04;100.00
32131;BME280;18639;50.716;7.086;2022-10-20T14:52:47;100033.63;;;13.99;100.00
32131;BME280;18639;50.716;7.086;2022-10-20T14:55:33;100043.63;;;14.04;100.00
32131;BME280;18639;50.716;7.086;2022-10-20T14:58:00;100043.75;;;14.02;100.00
32131;BME280;18639;50.716;7.086;2022-10-20T15:00:34;100032.78;;;13.99;100.00
32131;BME280;18639;50.716;7.086;2022-10-20T15:03:02;100055.19;;;14.00;100.00
32131;BME280;18639;50.716;7.086;2022-10-20T15:05:34;100045.78;;;13.99;100.00
32131;BME280;18639;50.716;7.086;2022-10-20T15:08:15;100046.22;;;14.04;100.00
32131;BME280;18639;50.716;7.086;2022-10-20T15:10:42;100038.94;;;13.98;100.00
32131;BME280;18639;50.716;7.086;2022-10-20T15:13:24;100050.97;;;13.99;100.00
32131;BME280;18639;50.716;7.086;2022-10-20T15:15:51;100039.28;;;13.83;100.00
32131;BME280;18639;50.716;7.086;2022-10-20T15:18:18;100043.41;;;13.96;100.00
32131;BME280;18639;50.716;7.086;2022-10-20T15:20:46;100050.59;;;14.03;100.00
32131;BME280;18639;50.716;7.086;2022-10-20T15:23:20;100052.53;;;14.11;100.00
32131;BME280;18639;50.716;7.086;2022-10-20T15:25:54;100036.78;;;14.03;100.00